ESOEEKSB

Guest
Details From ESOE - Orebro
To EKSB - Sonderborg
Flight Number -
Tags generated
Created
Modified
Stats Distance 311 nm / 577 km
Max Altitude 34,000 ft / 10,363 m
Waypoints 7
Social Downloads 0
Likes 0
Share VATSIM

Download

Looking for another format? Having issues loading an existing format? Contact us
Advertisement - Login to hide

Notes

Basic altitude profile: - Ascent Rate: 2500ft/min - Ascent Speed: 250kts - Cruise Altitude: 35000ft - Cruise Speed: 420kts - Descent Rate: 1500ft/min - Descent Speed: 250kts Options: - Use NATs: yes - Use PACOTS: yes - Use low airways: yes - Use high airways: yes

Route

ESOE LABAN UN873 BAK UM852 TUKTU EKSB

ID Type Via Altitude Latitude Longitude Leg Dist Tot Dist Heading (true) Name
O ESOE APT - 0 ft / 0 m 59.22242˚ 15.03743˚ - 0 nm - Orebro
LABAN FIX - 28,700 ft / 8,748 m 58.16939˚ 13.29431˚ 83 nm 83 nm 221° / 220° -
DEGAV FIX UN873 (AWY-HI) 34,000 ft / 10,363 m 57.72806˚ 12.34022˚ 40 nm 123 nm 229° / 229° -
BAK VOR UN873 (AWY-HI) 34,000 ft / 10,363 m 57.55517˚ 11.97686˚ 15 nm 139 nm 229° / 228° BACKA VOR-DME
VADIN FIX UM852 (AWY-HI) 30,000 ft / 9,144 m 57.13778˚ 11.64389˚ 27 nm 166 nm 203° / 203° -
TUKTU FIX UM852 (AWY-HI) 24,500 ft / 7,468 m 56.26750˚ 10.97556˚ 56 nm 223 nm 203° / 203° -
O EKSB APT - 0 ft / 0 m 54.96283˚ 9.79402˚ 88 nm 311 nm 208° / 207° Sonderborg

Altitude Profile

Advertisement - Login to hide

Weather


0- 5 10 15 20 25 30 35+ Temperature / ° C

Clouds and Precipitation
Forecast for 2018-05-26 12:00 UTC. Updated 5 hours ago

Ground ~20,000 ft ~40,000 ft Winds

ESOE

Details ICAO ESOE (ORB)
Name Orebro
Region Sweden
Timezone Europe/Stockholm (UTC+2.0)
Stats Elevation 188 ft / 57 m (AMSL)
Location 59.222418° 15.037425°
Runways 1
Magnetic Variation 4.977° E

METAR

ESOE 261620Z AUTO 09008KT 9999 NCD 25/04 Q1026

Decode

TAF

Not found

Departure Runways

ID Width Length Bearing (true) Bearing (mag) Surface Threshold Offset Overrun Length
01 148 ft / 45 m 8,521 ft / 2,597 m 11.65° 6.67° Asphalt 0 ft / 0 m 0 ft / 0 m
19 148 ft / 45 m 8,521 ft / 2,597 m 191.66° 186.68° Asphalt 0 ft / 0 m 0 ft / 0 m

EKSB

Details ICAO EKSB (SGD)
Name Sonderborg
Region Denmark / Faroe Islands
Timezone Europe/Copenhagen (UTC+2.0)
Stats Elevation 24 ft / 7 m (AMSL)
Location 54.962829° 9.794023°
Runways 1
Magnetic Variation 2.804° E

METAR

EKSB 261620Z AUTO 05007KT 9999NDV NCD 22/15 Q1024

Decode

TAF

Not found

Destination Runways

ID Width Length Bearing (true) Bearing (mag) Surface Threshold Offset Overrun Length
14 98 ft / 30 m 5,884 ft / 1,793 m 139.42° 136.62° Asphalt 0 ft / 0 m 0 ft / 0 m
32 98 ft / 30 m 5,884 ft / 1,793 m 319.43° 316.63° Asphalt 0 ft / 0 m 0 ft / 0 m

Approach Navaids

Runway Type Ident Frequency Range Bearing (true) Bearing (mag) Slope Elevation
32 Localiser CIM 111.15 MHz 18 nm / 33 km 319.41° 316.61° - 24 ft / 7 m (AMSL)
32 Glidescope CIM 111.15 MHz 10 nm / 19 km 319.42° 316.62° 3.00° 24 ft / 7 m (AMSL)
32 DME CIM 111.15 MHz 18 nm / 33 km - - - 24 ft / 7 m (AMSL)